createdAt,value
2017-10-03T00:00:02.199Z,97235.64
2017-10-03T00:02:29.759Z,97242.58
2017-10-03T00:04:57.298Z,97232.25
2017-10-03T00:07:24.818Z,97233.45
2017-10-03T00:09:52.374Z,97231.47
2017-10-03T00:12:19.913Z,97222.44
2017-10-03T00:14:47.451Z,97220.85
2017-10-03T00:17:14.959Z,97204.24
2017-10-03T00:19:42.857Z,97213.22
2017-10-03T00:22:10.375Z,97187.64
2017-10-03T00:24:37.894Z,97197.05
2017-10-03T00:27:05.473Z,97187.87
2017-10-03T00:29:33.011Z,97174.72
2017-10-03T00:32:00.519Z,97177.21
2017-10-03T00:34:28.080Z,97173.98
2017-10-03T00:36:55.599Z,97166.34
2017-10-03T00:39:23.146Z,97158.52
2017-10-03T00:41:50.911Z,97158.37
2017-10-03T00:44:18.415Z,97165.92
2017-10-03T00:46:46.027Z,97166.75
2017-10-03T00:49:13.790Z,97166.02
2017-10-03T00:51:41.387Z,97154.53
2017-10-03T00:54:08.909Z,97145.16
2017-10-03T00:56:36.573Z,97136.14
2017-10-03T00:59:04.130Z,97127.27
2017-10-03T01:01:31.639Z,97122.86
2017-10-03T01:03:59.374Z,97117.26
2017-10-03T01:06:26.911Z,97108.98
2017-10-03T01:08:54.418Z,97100.93
2017-10-03T01:11:21.967Z,97094.96
2017-10-03T01:13:49.494Z,97080.05
2017-10-03T01:16:17.007Z,97082.26
2017-10-03T01:18:44.574Z,97073.84
2017-10-03T01:21:12.087Z,97066.06
2017-10-03T01:23:39.854Z,97061.50
2017-10-03T01:26:07.712Z,97059.86
2017-10-03T01:28:35.223Z,97043.64
2017-10-03T01:31:02.730Z,97035.75
2017-10-03T01:33:30.439Z,97037.41
2017-10-03T01:35:57.952Z,97037.39
2017-10-03T01:38:25.508Z,97019.28
2017-10-03T01:40:53.055Z,97022.45
2017-10-03T01:43:20.707Z,97015.73
2017-10-03T01:45:48.220Z,97005.50
2017-10-03T01:48:15.758Z,97005.25
2017-10-03T01:50:43.281Z,97001.29
2017-10-03T01:53:10.786Z,96988.36
2017-10-03T01:55:38.482Z,96988.25
2017-10-03T01:58:05.989Z,96978.42
2017-10-03T02:00:33.501Z,96971.80
2017-10-03T02:03:01.362Z,96971.87
2017-10-03T02:05:28.870Z,96964.67
2017-10-03T02:07:56.378Z,96963.66
2017-10-03T02:10:24.061Z,96960.28
2017-10-03T02:12:51.568Z,96951.19
2017-10-03T02:15:19.078Z,96946.92
2017-10-03T02:17:46.637Z,96948.02
2017-10-03T02:20:14.195Z,96941.44
2017-10-03T02:22:41.702Z,96930.31
2017-10-03T02:25:09.242Z,96920.38
2017-10-03T02:27:36.758Z,96921.54
2017-10-03T02:30:04.275Z,96922.20
2017-10-03T02:32:32.179Z,96915.52
2017-10-03T02:34:59.857Z,96913.34
2017-10-03T02:37:27.359Z,96903.27
2017-10-03T02:39:54.988Z,96898.72
2017-10-03T02:42:22.535Z,96896.33
2017-10-03T02:44:50.047Z,96891.37
2017-10-03T02:47:17.857Z,96895.06
2017-10-03T02:49:45.418Z,96882.56
2017-10-03T02:52:12.939Z,96875.36
2017-10-03T02:54:40.751Z,96864.20
2017-10-03T02:57:08.262Z,96858.66
2017-10-03T02:59:35.780Z,96858.48
2017-10-03T03:02:03.464Z,96848.69
2017-10-03T03:04:30.980Z,96849.05
2017-10-03T03:06:58.535Z,96845.42
2017-10-03T03:09:26.094Z,96827.48
2017-10-03T03:11:53.601Z,96822.86
2017-10-03T03:14:21.151Z,96810.41
2017-10-03T03:16:48.873Z,96814.82
2017-10-03T03:19:16.381Z,96798.08
2017-10-03T03:21:43.889Z,96804.95
2017-10-03T03:24:11.448Z,96813.08
2017-10-03T03:26:39.407Z,96848.17
2017-10-03T03:29:06.914Z,96958.05
2017-10-03T03:31:34.842Z,97007.11
2017-10-03T03:34:02.354Z,97014.41
2017-10-03T03:36:29.867Z,97017.83
2017-10-03T03:38:57.463Z,97024.59
2017-10-03T03:41:24.982Z,97018.26
2017-10-03T03:43:52.536Z,97023.37
2017-10-03T03:46:20.110Z,97030.22
2017-10-03T03:48:47.654Z,97015.70
2017-10-03T03:51:15.159Z,96980.67
2017-10-03T03:53:43.079Z,97007.45
2017-10-03T03:56:10.587Z,97005.58
2017-10-03T03:58:38.105Z,96969.85
2017-10-03T04:01:05.654Z,96996.98
2017-10-03T04:03:33.165Z,97035.33
2017-10-03T04:06:00.676Z,97058.73
2017-10-03T04:08:28.408Z,97066.88
2017-10-03T04:10:55.923Z,97074.33
2017-10-03T04:13:23.450Z,97082.64
2017-10-03T04:15:51.317Z,97073.92
2017-10-03T04:18:18.826Z,97089.38
2017-10-03T04:20:46.333Z,97106.76
2017-10-03T04:23:13.887Z,97114.02
2017-10-03T04:25:41.394Z,97112.87
2017-10-03T04:28:08.919Z,97101.09
2017-10-03T04:30:36.670Z,97100.23
2017-10-03T04:33:04.177Z,97087.03
2017-10-03T04:35:31.683Z,97090.34
2017-10-03T04:37:59.453Z,97079.91
2017-10-03T04:40:27.010Z,97072.95
2017-10-03T04:42:54.523Z,97064.97
2017-10-03T04:45:22.418Z,97064.17
2017-10-03T04:47:49.930Z,97072.02
2017-10-03T04:50:17.437Z,97075.17
2017-10-03T04:52:45.010Z,97086.66
2017-10-03T04:55:12.514Z,97101.94
2017-10-03T04:57:40.042Z,97107.69
2017-10-03T05:00:07.891Z,97106.09
2017-10-03T05:02:35.414Z,97102.74
2017-10-03T05:05:02.945Z,97090.87
2017-10-03T05:07:30.569Z,97099.55
2017-10-03T05:09:58.130Z,97106.52
2017-10-03T05:12:25.700Z,97110.40
2017-10-03T05:14:53.247Z,97118.03
2017-10-03T05:17:20.805Z,97112.64
2017-10-03T05:19:48.365Z,97108.50
2017-10-03T05:22:16.105Z,97118.76
2017-10-03T05:24:43.633Z,97110.75
2017-10-03T05:27:11.155Z,97107.44
2017-10-03T05:29:38.719Z,97124.23
2017-10-03T05:32:06.262Z,97139.45
2017-10-03T05:34:33.843Z,97157.78
2017-10-03T05:37:01.813Z,97177.20
2017-10-03T05:39:29.350Z,97190.14
2017-10-03T05:41:56.861Z,97193.09
2017-10-03T05:44:24.570Z,97203.32
2017-10-03T05:46:52.079Z,97220.65
2017-10-03T05:49:19.996Z,97223.03
2017-10-03T05:51:47.857Z,97233.03
2017-10-03T05:54:15.424Z,97237.86
2017-10-03T05:56:42.930Z,97257.55
2017-10-03T05:59:10.478Z,97265.70
2017-10-03T06:01:37.986Z,97267.23
2017-10-03T06:04:05.496Z,97282.17
2017-10-03T06:06:33.083Z,97287.50
2017-10-03T06:09:00.598Z,97291.20
2017-10-03T06:11:28.110Z,97290.10
2017-10-03T06:13:55.900Z,97293.58
2017-10-03T06:16:23.454Z,97311.79
2017-10-03T06:18:51.115Z,97321.23
2017-10-03T06:21:18.806Z,97326.24
2017-10-03T06:23:46.335Z,97324.20
2017-10-03T06:26:13.895Z,97315.69
2017-10-03T06:28:41.445Z,97306.95
2017-10-03T06:31:08.953Z,97279.87
2017-10-03T06:33:36.470Z,97236.95
2017-10-03T06:36:04.038Z,97239.55
2017-10-03T06:38:31.588Z,97268.77
2017-10-03T06:40:59.095Z,97259.92
2017-10-03T06:43:27.012Z,97268.66
2017-10-03T06:45:54.573Z,97305.13
2017-10-03T06:48:22.077Z,97321.29
2017-10-03T06:50:50.927Z,97327.48
2017-10-03T06:53:18.580Z,97340.06
2017-10-03T06:55:46.086Z,97349.31
2017-10-03T06:58:13.628Z,97341.74
2017-10-03T07:00:41.166Z,97330.19
2017-10-03T07:03:08.683Z,97348.63
2017-10-03T07:05:36.553Z,97363.47
2017-10-03T07:08:04.062Z,97368.69
2017-10-03T07:10:31.638Z,97381.16
2017-10-03T07:12:59.361Z,97358.13
2017-10-03T07:15:27.029Z,97397.46
2017-10-03T07:17:55.034Z,97402.01
2017-10-03T07:20:22.754Z,97389.98
2017-10-03T07:22:50.416Z,97391.06
2017-10-03T07:25:17.976Z,97403.81
2017-10-03T07:27:45.727Z,97429.32
2017-10-03T07:30:13.370Z,97424.83
2017-10-03T07:32:41.200Z,97358.13
2017-10-03T07:35:08.751Z,97410.13
2017-10-03T07:37:37.715Z,97424.91
2017-10-03T07:40:05.294Z,97433.50
2017-10-03T07:42:33.755Z,97446.23
2017-10-03T07:45:01.314Z,97438.74
2017-10-03T07:47:29.295Z,97436.75
2017-10-03T07:49:57.157Z,97441.61
2017-10-03T07:52:24.709Z,97439.18
2017-10-03T07:54:52.273Z,97432.75
2017-10-03T07:57:19.993Z,97441.88
2017-10-03T07:59:47.695Z,97440.95
2017-10-03T08:02:15.460Z,97446.91
2017-10-03T08:04:43.642Z,97450.08
2017-10-03T08:07:11.510Z,97456.48
2017-10-03T08:09:39.098Z,97468.77
2017-10-03T08:12:07.231Z,97474.31
2017-10-03T08:14:34.745Z,97467.97
2017-10-03T08:17:03.685Z,97470.64
2017-10-03T08:19:31.662Z,97484.72
2017-10-03T08:21:59.220Z,97484.01
2017-10-03T08:24:26.765Z,97485.27
2017-10-03T08:26:54.339Z,97478.56
2017-10-03T08:29:22.008Z,97482.82
2017-10-03T08:31:49.590Z,97491.72
2017-10-03T08:34:17.823Z,97492.48
2017-10-03T08:36:45.698Z,97505.31
2017-10-03T08:39:13.266Z,97509.77
2017-10-03T08:41:41.073Z,97514.16
2017-10-03T08:44:08.673Z,97517.88
2017-10-03T08:46:36.218Z,97521.94
2017-10-03T08:49:04.235Z,97529.52
2017-10-03T08:51:31.759Z,97531.33
2017-10-03T08:53:59.317Z,97536.31
2017-10-03T08:56:27.595Z,97546.38
2017-10-03T08:58:55.492Z,97545.39
2017-10-03T09:01:23.430Z,97560.19
2017-10-03T09:03:51.601Z,97563.86
2017-10-03T09:06:19.174Z,97570.36
2017-10-03T09:08:46.935Z,97568.19
2017-10-03T09:11:14.674Z,97573.54
2017-10-03T09:13:44.040Z,97578.74
2017-10-03T09:16:11.741Z,97588.05
2017-10-03T09:18:39.622Z,97591.52
2017-10-03T09:21:07.280Z,97598.36
2017-10-03T09:23:34.973Z,97609.46
2017-10-03T09:26:02.774Z,97616.78
2017-10-03T09:28:31.187Z,97616.56
2017-10-03T09:30:58.748Z,97616.06
2017-10-03T09:33:26.327Z,97629.14
2017-10-03T09:35:53.950Z,97625.58
2017-10-03T09:38:21.490Z,97635.41
2017-10-03T09:40:49.144Z,97640.69
2017-10-03T09:43:16.848Z,97650.91
2017-10-03T09:45:44.615Z,97654.27
2017-10-03T09:48:12.889Z,97657.07
2017-10-03T09:50:40.568Z,97656.27
2017-10-03T09:53:08.316Z,97663.35
2017-10-03T09:55:36.308Z,97673.63
2017-10-03T09:58:03.963Z,97678.80
2017-10-03T10:00:32.259Z,97683.19
2017-10-03T10:03:00.207Z,97687.24
2017-10-03T10:05:27.755Z,97684.55
2017-10-03T10:07:55.429Z,97683.95
2017-10-03T10:10:23.488Z,97687.25
2017-10-03T10:12:51.246Z,97697.48
2017-10-03T10:15:18.979Z,97702.49
2017-10-03T10:17:46.997Z,97703.69
2017-10-03T10:20:14.684Z,97711.85
2017-10-03T10:22:42.206Z,97719.02
2017-10-03T10:25:10.077Z,97713.38
2017-10-03T10:27:37.829Z,97721.19
2017-10-03T10:30:05.798Z,97716.16
2017-10-03T10:32:33.480Z,97722.19
2017-10-03T10:35:01.879Z,97725.95
2017-10-03T10:37:29.459Z,97722.31
2017-10-03T10:39:57.284Z,97738.48
2017-10-03T10:42:24.826Z,97731.16
2017-10-03T10:44:52.484Z,97736.97
2017-10-03T10:47:20.553Z,97735.67
2017-10-03T10:49:48.934Z,97740.60
2017-10-03T10:52:16.493Z,97739.54
2017-10-03T10:54:44.089Z,97741.38
2017-10-03T10:57:11.622Z,97751.47
2017-10-03T10:59:39.168Z,97757.23
2017-10-03T11:02:07.138Z,97757.84
2017-10-03T11:04:34.800Z,97759.42
2017-10-03T11:07:02.473Z,97766.74
2017-10-03T11:09:30.122Z,97772.81
2017-10-03T11:11:57.901Z,97775.80
2017-10-03T11:14:25.506Z,97772.14
2017-10-03T11:16:53.535Z,97772.12
2017-10-03T11:19:21.066Z,97773.77
2017-10-03T11:21:48.856Z,97775.39
2017-10-03T11:24:29.062Z,97774.43
2017-10-03T11:26:56.759Z,97770.76
2017-10-03T11:29:24.426Z,97782.14
2017-10-03T11:31:52.695Z,97777.32
2017-10-03T11:34:20.532Z,97782.28
2017-10-03T11:36:48.319Z,97775.44
2017-10-03T11:39:16.498Z,97782.56
2017-10-03T11:41:44.305Z,97774.79
2017-10-03T11:44:12.028Z,97788.94
2017-10-03T11:46:39.792Z,97784.91
2017-10-03T11:49:07.427Z,97787.78
2017-10-03T11:51:35.277Z,97782.42
2017-10-03T11:54:03.286Z,97795.17
2017-10-03T11:56:31.067Z,97803.59
2017-10-03T11:58:59.038Z,97806.24
2017-10-03T12:01:27.244Z,97809.30
2017-10-03T12:03:54.958Z,97809.53
2017-10-03T12:06:22.720Z,97804.06
2017-10-03T12:08:50.606Z,97817.64
2017-10-03T12:11:18.455Z,97813.81
2017-10-03T12:13:46.321Z,97812.95
2017-10-03T12:16:15.023Z,97804.84
2017-10-03T12:18:42.892Z,97812.45
2017-10-03T12:21:11.557Z,97813.54
2017-10-03T12:23:39.619Z,97810.82
2017-10-03T12:26:07.392Z,97818.20
2017-10-03T12:28:35.053Z,97816.80
2017-10-03T12:31:02.716Z,97817.32
2017-10-03T12:33:30.443Z,97828.77
2017-10-03T12:35:58.347Z,97817.70
2017-10-03T12:38:26.279Z,97826.56
2017-10-03T12:40:53.976Z,97833.26
2017-10-03T12:43:22.237Z,97825.70
2017-10-03T12:45:50.220Z,97828.79
2017-10-03T12:48:17.797Z,97838.09
2017-10-03T12:50:45.411Z,97847.16
2017-10-03T12:53:13.314Z,97844.31
2017-10-03T12:55:41.276Z,97839.83
2017-10-03T12:58:08.958Z,97839.20
2017-10-03T13:00:37.016Z,97848.33
2017-10-03T13:03:04.554Z,97850.39
2017-10-03T13:05:32.126Z,97846.76
2017-10-03T13:07:59.897Z,97841.46
2017-10-03T13:10:27.494Z,97840.30
2017-10-03T13:12:55.095Z,97845.88
2017-10-03T13:15:22.878Z,97843.22
2017-10-03T13:17:50.538Z,97843.63
2017-10-03T13:20:19.098Z,97850.68
2017-10-03T13:22:46.883Z,97846.95
2017-10-03T13:25:14.622Z,97857.83
2017-10-03T13:27:42.301Z,97852.72
2017-10-03T13:30:10.380Z,97859.87
2017-10-03T13:32:38.247Z,97865.38
2017-10-03T13:35:06.934Z,97863.94
2017-10-03T13:37:35.121Z,97867.41
2017-10-03T13:40:04.035Z,97868.88
2017-10-03T13:42:31.863Z,97864.53
2017-10-03T13:44:59.933Z,97862.10
2017-10-03T13:47:27.491Z,97872.04
2017-10-03T13:49:55.131Z,97866.95
2017-10-03T13:52:23.031Z,97876.16
2017-10-03T13:54:50.785Z,97871.67
2017-10-03T13:57:18.550Z,97877.66
2017-10-03T13:59:46.144Z,97869.89
2017-10-03T14:02:13.974Z,97878.16
2017-10-03T14:04:41.847Z,97870.69
2017-10-03T14:07:09.920Z,97868.70
2017-10-03T14:09:37.880Z,97871.45
2017-10-03T14:12:05.524Z,97874.91
2017-10-03T14:14:33.715Z,97870.47
2017-10-03T14:17:01.479Z,97874.14
2017-10-03T14:19:29.309Z,97873.55
2017-10-03T14:21:56.982Z,97870.62
2017-10-03T14:24:24.772Z,97871.84
2017-10-03T14:26:52.556Z,97871.25
2017-10-03T14:29:20.520Z,97872.41
2017-10-03T14:31:48.473Z,97872.87
2017-10-03T14:34:16.256Z,97872.66
2017-10-03T14:36:44.204Z,97875.75
2017-10-03T14:39:11.969Z,97877.89
2017-10-03T14:41:39.633Z,97877.06
2017-10-03T14:44:07.704Z,97874.76
2017-10-03T14:46:35.475Z,97873.52
2017-10-03T14:49:03.394Z,97873.47
2017-10-03T14:51:31.313Z,97878.55
2017-10-03T14:53:59.063Z,97874.27
2017-10-03T14:56:27.441Z,97877.62
2017-10-03T14:58:55.410Z,97876.63
2017-10-03T15:01:23.175Z,97881.63
2017-10-03T15:03:51.245Z,97879.56
2017-10-03T15:06:19.419Z,97887.55
2017-10-03T15:08:47.675Z,97893.97
2017-10-03T15:11:15.868Z,97889.23
2017-10-03T15:13:43.653Z,97887.04
2017-10-03T15:16:12.113Z,97899.52
2017-10-03T15:18:40.010Z,97904.75
2017-10-03T15:21:08.064Z,97899.86
2017-10-03T15:23:35.930Z,97906.61
2017-10-03T15:26:03.681Z,97912.72
2017-10-03T15:28:32.566Z,97908.09
2017-10-03T15:31:00.544Z,97907.71
2017-10-03T15:33:28.672Z,97916.27
2017-10-03T15:35:57.400Z,97910.08
2017-10-03T15:38:25.818Z,97918.45
2017-10-03T15:40:53.645Z,97920.50
2017-10-03T15:43:21.718Z,97923.98
2017-10-03T15:45:49.492Z,97924.73
2017-10-03T15:48:17.242Z,97926.55
2017-10-03T15:50:45.033Z,97932.17
2017-10-03T15:53:12.834Z,97935.05
2017-10-03T15:55:40.762Z,97940.20
2017-10-03T15:58:09.322Z,97941.36
2017-10-03T16:00:37.226Z,97957.80
2017-10-03T16:03:05.055Z,97959.61
2017-10-03T16:05:33.837Z,97964.88
2017-10-03T16:08:01.934Z,97964.24
2017-10-03T16:10:30.043Z,97974.25
2017-10-03T16:12:57.954Z,97971.88
2017-10-03T16:15:25.821Z,97970.30
2017-10-03T16:17:53.583Z,97970.47
2017-10-03T16:20:21.449Z,97968.58
2017-10-03T16:22:49.730Z,97973.59
2017-10-03T16:25:17.590Z,97975.63
2017-10-03T16:27:46.074Z,97983.36
2017-10-03T16:30:14.018Z,97987.22
2017-10-03T16:32:41.908Z,97988.13
2017-10-03T16:35:09.774Z,97989.41
2017-10-03T16:37:37.544Z,97992.00
2017-10-03T16:40:05.320Z,97981.36
2017-10-03T16:42:33.373Z,97991.79
2017-10-03T16:45:01.050Z,97997.37
2017-10-03T16:47:28.806Z,97996.36
2017-10-03T16:49:56.974Z,98002.63
2017-10-03T16:52:24.751Z,98006.66
2017-10-03T16:54:52.603Z,98020.27
2017-10-03T16:57:20.572Z,98023.86
2017-10-03T16:59:48.815Z,98025.50
2017-10-03T17:02:16.713Z,98034.42
2017-10-03T17:04:44.898Z,98043.17
2017-10-03T17:07:12.870Z,98041.91
2017-10-03T17:09:40.721Z,98048.02
2017-10-03T17:12:08.901Z,98044.20
2017-10-03T17:14:36.762Z,98048.65
2017-10-03T17:17:04.647Z,98048.77
2017-10-03T17:19:32.597Z,98045.14
2017-10-03T17:22:00.442Z,98053.86
2017-10-03T17:24:28.266Z,98062.59
2017-10-03T17:26:57.246Z,98055.48
2017-10-03T17:29:25.200Z,98061.80
2017-10-03T17:31:52.955Z,98059.98
2017-10-03T17:34:20.840Z,98056.25
2017-10-03T17:36:48.801Z,98061.23
2017-10-03T17:39:16.627Z,98063.83
2017-10-03T17:41:44.725Z,98067.50
2017-10-03T17:44:12.620Z,98069.77
2017-10-03T17:46:40.839Z,98086.22
2017-10-03T17:49:09.105Z,98081.78
2017-10-03T17:51:36.906Z,98088.45
2017-10-03T17:54:04.977Z,98085.89
2017-10-03T17:56:32.750Z,98088.91
2017-10-03T17:59:00.530Z,98097.16
2017-10-03T18:01:28.766Z,98096.04
2017-10-03T18:03:56.601Z,98096.77
2017-10-03T18:06:24.415Z,98103.48
2017-10-03T18:08:52.395Z,98098.39
2017-10-03T18:11:20.349Z,98099.18
2017-10-03T18:13:48.198Z,98099.59
2017-10-03T18:16:16.089Z,98098.75
2017-10-03T18:18:44.051Z,98110.73
2017-10-03T18:21:11.814Z,98108.09
2017-10-03T18:23:39.689Z,98115.03
2017-10-03T18:26:07.658Z,98112.65
2017-10-03T18:28:35.617Z,98119.86
2017-10-03T18:31:03.485Z,98121.41
2017-10-03T18:33:31.555Z,98126.16
2017-10-03T18:35:59.604Z,98133.36
2017-10-03T18:38:27.397Z,98140.01
2017-10-03T18:40:55.489Z,98142.30
2017-10-03T18:43:23.297Z,98135.61
2017-10-03T18:45:52.769Z,98132.92
2017-10-03T18:48:20.715Z,98127.34
2017-10-03T18:50:48.680Z,98124.58
2017-10-03T18:53:20.053Z,98133.30
2017-10-03T18:55:47.986Z,98141.13
2017-10-03T18:58:15.762Z,98144.66
2017-10-03T19:00:43.835Z,98147.64
2017-10-03T19:03:12.608Z,98153.47
2017-10-03T19:05:40.381Z,98159.47
2017-10-03T19:08:08.141Z,98154.50
2017-10-03T19:10:36.308Z,98152.01
2017-10-03T19:13:04.277Z,98162.70
2017-10-03T19:15:32.044Z,98165.19
2017-10-03T19:18:00.522Z,98170.77
2017-10-03T19:20:28.491Z,98163.68
2017-10-03T19:22:56.495Z,98171.08
2017-10-03T19:25:24.337Z,98169.15
2017-10-03T19:27:52.191Z,98174.00
2017-10-03T19:30:20.646Z,98177.27
2017-10-03T19:32:48.951Z,98177.81
2017-10-03T19:35:17.532Z,98182.38
2017-10-03T19:37:45.538Z,98176.54
2017-10-03T19:40:14.725Z,98179.94
2017-10-03T19:42:44.180Z,98184.34
2017-10-03T19:45:12.479Z,98185.09
2017-10-03T19:47:40.856Z,98186.54
2017-10-03T19:50:09.774Z,98188.67
2017-10-03T19:52:37.716Z,98187.47
2017-10-03T19:55:05.787Z,98177.81
2017-10-03T19:57:33.654Z,98176.43
2017-10-03T20:00:01.431Z,98186.19
2017-10-03T20:02:29.666Z,98186.89
2017-10-03T20:04:57.376Z,98191.05
2017-10-03T20:07:25.397Z,98196.28
2017-10-03T20:09:53.291Z,98201.69
2017-10-03T20:12:21.132Z,98202.11
2017-10-03T20:14:49.144Z,98203.59
2017-10-03T20:17:17.197Z,98194.66
2017-10-03T20:19:44.975Z,98186.47
2017-10-03T20:22:12.871Z,98194.78
2017-10-03T20:24:40.694Z,98199.22
2017-10-03T20:27:08.372Z,98205.21
2017-10-03T20:29:37.048Z,98204.38
2017-10-03T20:32:05.713Z,98213.12
2017-10-03T20:34:33.562Z,98221.38
2017-10-03T20:37:01.480Z,98211.30
2017-10-03T20:39:29.391Z,98215.41
2017-10-03T20:41:57.061Z,98218.04
2017-10-03T20:44:24.852Z,98224.84
2017-10-03T20:46:52.721Z,98227.89
2017-10-03T20:49:21.101Z,98228.60
2017-10-03T20:51:49.226Z,98235.00
2017-10-03T20:54:17.142Z,98236.97
2017-10-03T20:56:44.904Z,98241.35
2017-10-03T20:59:12.529Z,98245.08
2017-10-03T21:01:40.429Z,98237.50
2017-10-03T21:04:08.092Z,98240.55
2017-10-03T21:06:35.958Z,98247.30
2017-10-03T21:09:03.730Z,98243.32
2017-10-03T21:11:31.683Z,98251.73
2017-10-03T21:13:59.250Z,98246.64
2017-10-03T21:18:54.996Z,98253.18
2017-10-03T21:21:22.958Z,98260.28
2017-10-03T21:23:50.891Z,98268.19
2017-10-03T21:26:18.579Z,98264.53
2017-10-03T21:28:46.378Z,98262.24
2017-10-03T21:31:14.049Z,98266.17
2017-10-03T21:33:41.668Z,98273.91
2017-10-03T21:36:09.230Z,98269.08
2017-10-03T21:38:37.608Z,98264.46
2017-10-03T21:41:05.475Z,98261.39
2017-10-03T21:43:32.986Z,98255.88
2017-10-03T21:46:01.226Z,98246.61
2017-10-03T21:48:28.778Z,98247.23
2017-10-03T21:50:56.323Z,98254.19
2017-10-03T21:53:24.292Z,98245.16
2017-10-03T21:55:51.805Z,98256.20
2017-10-03T21:58:19.348Z,98248.98
2017-10-03T22:00:47.120Z,98254.09
2017-10-03T22:03:14.630Z,98247.83
2017-10-03T22:05:42.375Z,98247.53
2017-10-03T22:08:09.939Z,98255.56
2017-10-03T22:10:37.613Z,98250.66
2017-10-03T22:13:05.126Z,98256.30
2017-10-03T22:15:32.679Z,98260.77
2017-10-03T22:18:00.227Z,98253.72
2017-10-03T22:20:27.746Z,98255.03
2017-10-03T22:22:55.486Z,98261.52
2017-10-03T22:25:23.002Z,98266.11
2017-10-03T22:27:50.526Z,98264.04
2017-10-03T22:30:18.271Z,98264.78
2017-10-03T22:32:58.774Z,98266.67
2017-10-03T22:35:26.454Z,98258.63
2017-10-03T22:37:53.976Z,98250.31
2017-10-03T22:40:21.538Z,98249.42
2017-10-03T22:42:49.295Z,98248.45
2017-10-03T22:45:16.807Z,98239.64
2017-10-03T22:47:44.319Z,98240.38
2017-10-03T22:50:12.250Z,98238.33
2017-10-03T22:52:39.771Z,98239.54
2017-10-03T22:55:08.526Z,98239.82
2017-10-03T22:57:36.299Z,98239.41
2017-10-03T23:00:03.814Z,98240.62
2017-10-03T23:02:31.321Z,98247.03
2017-10-03T23:04:58.882Z,98250.20
2017-10-03T23:07:26.432Z,98247.67
2017-10-03T23:09:53.982Z,98249.44
2017-10-03T23:12:21.543Z,98247.91
2017-10-03T23:14:50.426Z,98245.45
2017-10-03T23:17:18.891Z,98238.86
2017-10-03T23:19:47.802Z,98238.16
2017-10-03T23:22:15.310Z,98240.22
2017-10-03T23:24:42.832Z,98237.30
2017-10-03T23:27:10.563Z,98225.80
2017-10-03T23:29:38.078Z,98225.24
2017-10-03T23:32:05.586Z,98222.47
2017-10-03T23:34:33.360Z,98215.25
2017-10-03T23:37:01.642Z,98218.73
2017-10-03T23:39:29.914Z,98221.81
2017-10-03T23:41:57.692Z,98207.53
2017-10-03T23:44:25.238Z,98217.48
2017-10-03T23:46:52.746Z,98217.72
2017-10-03T23:49:20.456Z,98220.20
2017-10-03T23:51:48.016Z,98224.09
2017-10-03T23:54:15.780Z,98224.17
2017-10-03T23:56:43.360Z,98220.85
2017-10-03T23:59:10.898Z,98224.81
